Time;durP1;ratioP1;P1;durP2;ratioP2;P2;SDS_P1;SDS_P2;PMS_P1;PMS_P2;Temp;Humidity;BMP_temperature;BMP_pressure;BME280_temperature;BME280_humidity;BME280_pressure;Samples;Min_cycle;Max_cycle;Signal;HPM_P1;HPM_P2
2023/01/20 00:02:11;;;;;;;18.38;10.57;;;1.80;74.60;;;;;;5022396;28;20087;-61
2023/01/20 00:04:37;;;;;;;14.88;10.10;;;1.80;74.70;;;;;;5022711;28;20397;-60
2023/01/20 00:07:03;;;;;;;16.27;10.15;;;1.70;74.80;;;;;;5022818;28;20098;-62
2023/01/20 00:09:28;;;;;;;15.45;9.50;;;1.70;74.80;;;;;;5021031;28;20034;-61
2023/01/20 00:11:54;;;;;;;14.90;9.07;;;1.60;74.70;;;;;;5018633;28;20040;-62
2023/01/20 00:14:20;;;;;;;17.83;8.80;;;1.60;74.90;;;;;;5022519;28;20061;-61
2023/01/20 00:16:45;;;;;;;14.35;8.85;;;1.60;75.00;;;;;;5019653;28;20042;-61
2023/01/20 00:19:14;;;;;;;13.32;8.70;;;1.50;75.20;;;;;;5022892;28;20702;-61
2023/01/20 00:21:40;;;;;;;12.95;8.48;;;1.50;75.30;;;;;;5037852;28;20034;-61
2023/01/20 00:24:06;;;;;;;15.13;8.95;;;1.60;75.50;;;;;;5021406;28;20577;-61
2023/01/20 00:26:31;;;;;;;13.30;9.45;;;1.60;75.60;;;;;;5025994;28;20063;-59
2023/01/20 00:28:57;;;;;;;14.10;9.43;;;1.60;75.50;;;;;;5027036;28;20111;-61
2023/01/20 00:31:26;;;;;;;14.27;9.05;;;1.60;75.40;;;;;;5026022;28;20035;-60
2023/01/20 00:33:54;;;;;;;14.25;9.18;;;1.70;75.50;;;;;;5025949;28;20509;-60
2023/01/20 00:36:22;;;;;;;13.60;9.18;;;1.70;75.40;;;;;;5025508;28;20468;-62
2023/01/20 00:38:48;;;;;;;17.50;9.43;;;1.70;76.30;;;;;;5024755;28;20034;-59
2023/01/20 00:41:15;;;;;;;14.07;8.93;;;1.80;75.40;;;;;;5025568;28;20061;-59
2023/01/20 00:43:42;;;;;;;16.05;9.00;;;1.80;75.30;;;;;;5019691;28;20112;-59
2023/01/20 00:46:07;;;;;;;15.10;9.23;;;1.70;75.30;;;;;;5026487;28;20443;-61
2023/01/20 00:48:33;;;;;;;14.57;9.10;;;1.80;75.40;;;;;;5019033;28;20091;-62
2023/01/20 00:51:00;;;;;;;14.27;9.23;;;1.80;75.40;;;;;;5021109;28;20033;-61
2023/01/20 00:53:25;;;;;;;15.98;9.52;;;1.80;75.40;;;;;;5027565;28;20038;-61
2023/01/20 00:55:51;;;;;;;13.95;9.23;;;1.80;75.40;;;;;;5022578;28;20033;-61
2023/01/20 00:58:17;;;;;;;15.57;10.10;;;1.80;75.40;;;;;;5025255;28;20052;-60
2023/01/20 01:00:46;;;;;;;16.80;10.35;;;1.80;75.40;;;;;;5019250;28;20029;-61
2023/01/20 01:03:11;;;;;;;17.63;10.55;;;1.80;75.40;;;;;;5021941;28;20048;-60
2023/01/20 01:05:37;;;;;;;17.13;10.40;;;1.80;75.40;;;;;;5021800;28;20038;-59
2023/01/20 01:08:03;;;;;;;17.70;10.93;;;1.80;75.30;;;;;;5016924;28;20132;-59
2023/01/20 01:10:29;;;;;;;16.15;10.95;;;1.80;75.30;;;;;;5019649;28;20064;-60
2023/01/20 01:12:55;;;;;;;18.63;11.48;;;1.80;75.20;;;;;;5018173;28;20033;-60
2023/01/20 01:15:20;;;;;;;19.15;11.18;;;1.80;75.30;;;;;;5022245;28;20041;-60
2023/01/20 01:17:46;;;;;;;20.02;11.40;;;1.70;75.30;;;;;;5021477;28;20044;-58
2023/01/20 01:20:12;;;;;;;17.35;10.93;;;1.70;75.40;;;;;;5023436;28;20519;-58
2023/01/20 01:22:38;;;;;;;22.63;11.48;;;1.70;75.40;;;;;;5020185;28;20049;-58
2023/01/20 01:25:04;;;;;;;19.88;10.77;;;1.60;75.40;;;;;;5019021;28;20087;-59
2023/01/20 01:27:30;;;;;;;18.80;11.40;;;1.60;76.40;;;;;;5021241;28;20053;-59
2023/01/20 01:29:55;;;;;;;18.73;10.95;;;1.60;75.70;;;;;;5021058;28;20042;-61
2023/01/20 01:32:22;;;;;;;16.65;10.88;;;1.50;75.80;;;;;;5021911;28;20025;-61
2023/01/20 01:34:48;;;;;;;19.27;10.10;;;1.50;75.90;;;;;;5018013;28;20025;-58
2023/01/20 01:37:13;;;;;;;14.75;9.75;;;1.50;76.10;;;;;;5022154;28;20087;-60
2023/01/20 01:39:39;;;;;;;14.95;9.80;;;1.40;76.20;;;;;;5020805;28;20395;-59
2023/01/20 01:42:12;;;;;;;15.85;9.25;;;1.40;76.20;;;;;;5021313;28;20036;-59
2023/01/20 01:45:04;;;;;;;15.57;9.82;;;1.40;76.40;;;;;;5018426;28;20038;-59
2023/01/20 01:47:29;;;;;;;15.80;9.48;;;1.40;76.70;;;;;;5021508;28;20494;-60
2023/01/20 01:49:55;;;;;;;15.07;9.75;;;1.40;76.40;;;;;;5021875;28;20053;-60
2023/01/20 01:52:20;;;;;;;16.60;10.38;;;1.40;76.30;;;;;;5028755;28;20116;-60
2023/01/20 01:54:48;;;;;;;15.98;9.75;;;1.40;76.30;;;;;;5027275;28;20480;-60
2023/01/20 01:57:13;;;;;;;17.85;10.68;;;1.40;76.30;;;;;;5024273;28;20485;-58
2023/01/20 01:59:39;;;;;;;16.10;10.38;;;1.40;76.40;;;;;;5019860;28;20044;-61
2023/01/20 02:02:04;;;;;;;18.08;11.25;;;1.40;76.60;;;;;;5019954;28;20044;-60
2023/01/20 02:04:32;;;;;;;16.48;10.43;;;1.30;76.40;;;;;;5019331;28;20033;-61
2023/01/20 02:07:10;;;;;;;20.85;11.00;;;1.30;76.50;;;;;;5021547;28;20037;-62
2023/01/20 02:09:37;;;;;;;24.98;11.93;;;1.30;76.70;;;;;;5017950;28;20057;-60
2023/01/20 02:12:07;;;;;;;26.20;12.32;;;1.30;76.70;;;;;;5018451;28;20377;-62
2023/01/20 02:14:51;;;;;;;21.35;11.75;;;1.30;76.70;;;;;;5013334;28;20049;-60
2023/01/20 02:17:26;;;;;;;17.98;10.98;;;1.30;76.80;;;;;;5019685;28;20045;-60
2023/01/20 02:20:35;;;;;;;20.30;10.68;;;1.30;76.80;;;;;;5019888;28;20030;-61
2023/01/20 02:23:28;;;;;;;17.70;10.90;;;1.30;77.00;;;;;;5023192;28;21320;-61
2023/01/20 02:25:57;;;;;;;18.25;10.95;;;1.20;77.00;;;;;;5018955;28;20032;-61
2023/01/20 02:28:32;;;;;;;21.15;12.02;;;1.20;76.80;;;;;;5022266;28;20037;-58
2023/01/20 02:31:29;;;;;;;18.50;11.57;;;1.20;77.10;;;;;;5023574;28;20060;-60
2023/01/20 02:34:28;;;;;;;19.60;11.38;;;1.20;77.10;;;;;;5015990;28;20025;-61
2023/01/20 02:36:59;;;;;;;19.92;11.68;;;1.10;77.20;;;;;;5018215;28;20036;-61
2023/01/20 02:39:27;;;;;;;20.25;11.40;;;1.10;77.10;;;;;;5019215;28;20285;-61
2023/01/20 02:42:09;;;;;;;19.50;11.55;;;1.10;77.10;;;;;;5019246;28;20038;-59
2023/01/20 02:44:55;;;;;;;17.27;11.00;;;1.10;77.40;;;;;;5022815;28;20030;-60
2023/01/20 02:47:33;;;;;;;19.10;11.60;;;1.10;77.30;;;;;;5015991;28;20029;-62
2023/01/20 02:50:08;;;;;;;20.88;11.68;;;1.10;77.30;;;;;;5021762;28;20026;-61
2023/01/20 02:52:38;;;;;;;19.40;11.32;;;1.10;77.30;;;;;;5023897;28;20497;-61
2023/01/20 02:55:08;;;;;;;17.10;11.05;;;1.10;77.20;;;;;;5023827;28;20318;-60
2023/01/20 02:57:43;;;;;;;19.50;11.20;;;1.20;77.30;;;;;;5023296;28;20044;-61
2023/01/20 03:00:20;;;;;;;20.92;12.00;;;1.10;77.20;;;;;;5020011;28;20366;-61
2023/01/20 03:02:49;;;;;;;19.23;11.93;;;1.10;77.10;;;;;;5022890;28;20029;-61
2023/01/20 03:05:26;;;;;;;19.85;11.55;;;1.10;77.10;;;;;;5018298;28;20026;-61
2023/01/20 03:07:53;;;;;;;20.05;12.13;;;1.10;77.20;;;;;;5018298;28;20505;-61
2023/01/20 03:10:22;;;;;;;18.70;11.60;;;1.10;77.10;;;;;;5020509;28;20084;-59
2023/01/20 03:12:54;;;;;;;18.60;11.35;;;1.10;77.30;;;;;;5015530;28;20513;-61
2023/01/20 03:15:24;;;;;;;17.98;11.10;;;1.00;77.30;;;;;;5018723;28;20048;-61
2023/01/20 03:17:51;;;;;;;19.60;10.77;;;1.00;77.30;;;;;;5023282;28;20469;-60
2023/01/20 03:20:16;;;;;;;18.25;11.18;;;1.00;77.40;;;;;;5018275;28;20041;-60
2023/01/20 03:22:42;;;;;;;17.77;10.23;;;1.10;77.50;;;;;;5023429;28;20526;-58
2023/01/20 03:25:10;;;;;;;25.35;12.45;;;1.10;77.40;;;;;;5022005;28;20044;-60
2023/01/20 03:27:36;;;;;;;21.10;11.60;;;1.10;77.40;;;;;;5019683;28;20025;-60
2023/01/20 03:30:02;;;;;;;19.60;11.85;;;1.10;77.30;;;;;;5019307;28;20421;-62
2023/01/20 03:32:28;;;;;;;23.30;12.13;;;1.20;77.40;;;;;;5015040;28;20091;-60
2023/01/20 03:34:55;;;;;;;20.30;11.40;;;1.10;77.20;;;;;;5020555;28;20471;-60
2023/01/20 03:37:21;;;;;;;23.02;12.20;;;1.20;77.10;;;;;;5023974;28;20044;-61
2023/01/20 03:39:48;;;;;;;20.75;11.02;;;1.20;77.10;;;;;;5018549;28;20064;-61
2023/01/20 03:42:21;;;;;;;18.30;11.77;;;1.10;76.90;;;;;;5012780;28;20396;-61
2023/01/20 03:44:55;;;;;;;18.70;11.48;;;1.20;77.00;;;;;;5019875;28;20049;-58
2023/01/20 03:47:29;;;;;;;17.45;11.38;;;1.10;77.00;;;;;;5018735;28;20056;-60
2023/01/20 03:50:05;;;;;;;18.20;11.48;;;1.10;77.10;;;;;;5023356;28;20029;-60
2023/01/20 03:52:41;;;;;;;19.35;11.30;;;1.10;77.10;;;;;;5020192;28;20029;-60
2023/01/20 03:55:15;;;;;;;19.60;11.60;;;1.00;77.10;;;;;;5024645;28;20037;-60
2023/01/20 03:57:55;;;;;;;17.10;8.32;;;1.00;77.10;;;;;;5023029;28;20068;-59
2023/01/20 04:00:24;;;;;;;18.88;11.30;;;1.00;77.30;;;;;;5015849;28;20032;-62
2023/01/20 04:02:52;;;;;;;16.92;11.02;;;1.00;77.30;;;;;;5015669;28;20465;-60
2023/01/20 04:05:18;;;;;;;21.50;11.68;;;1.00;77.30;;;;;;5018077;28;20408;-60
2023/01/20 04:07:45;;;;;;;15.05;10.77;;;1.00;77.30;;;;;;5015777;28;20034;-60
2023/01/20 04:10:14;;;;;;;16.55;11.40;;;1.00;77.30;;;;;;5019685;28;20040;-61
2023/01/20 04:12:40;;;;;;;19.55;11.73;;;1.00;77.40;;;;;;5014203;28;20026;-61
2023/01/20 04:15:07;;;;;;;23.40;12.57;;;1.10;77.40;;;;;;5019342;28;20033;-61
2023/01/20 04:17:33;;;;;;;20.17;12.05;;;1.10;77.40;;;;;;5014347;28;20033;-60
2023/01/20 04:20:05;;;;;;;22.27;12.13;;;1.10;77.30;;;;;;5021833;28;20433;-61
2023/01/20 04:22:54;;;;;;;19.88;11.73;;;1.10;77.30;;;;;;5019341;28;20044;-61
2023/01/20 04:25:30;;;;;;;18.67;11.45;;;1.10;77.40;;;;;;5021985;28;20061;-61
2023/01/20 04:27:56;;;;;;;18.75;11.57;;;1.10;77.20;;;;;;5019559;28;20026;-59
2023/01/20 04:30:21;;;;;;;17.75;10.98;;;1.10;77.10;;;;;;5013517;28;20111;-61
2023/01/20 04:32:47;;;;;;;17.90;11.48;;;1.10;77.10;;;;;;5018316;28;20033;-58
2023/01/20 04:35:15;;;;;;;18.52;11.73;;;1.10;77.10;;;;;;5017444;28;20044;-61
2023/01/20 04:37:41;;;;;;;17.98;11.48;;;1.00;77.20;;;;;;5022761;28;20065;-60
2023/01/20 04:40:07;;;;;;;17.85;11.40;;;1.00;77.30;;;;;;5019141;28;20073;-61
2023/01/20 04:42:33;;;;;;;19.67;12.13;;;1.00;77.40;;;;;;5016490;28;20042;-61
2023/01/20 04:44:58;;;;;;;21.20;11.95;;;1.00;77.60;;;;;;5017988;28;20479;-61
2023/01/20 04:47:24;;;;;;;25.40;12.32;;;0.90;77.50;;;;;;5016129;28;20033;-61
2023/01/20 04:49:50;;;;;;;20.70;12.10;;;0.90;77.60;;;;;;5018172;28;20045;-59
2023/01/20 04:52:16;;;;;;;18.15;11.55;;;0.90;77.60;;;;;;5012358;28;20033;-58
2023/01/20 04:54:41;;;;;;;19.55;11.50;;;1.00;77.70;;;;;;5019686;28;20053;-60
2023/01/20 04:57:07;;;;;;;20.20;11.60;;;1.00;77.80;;;;;;5018314;28;20072;-59
2023/01/20 04:59:32;;;;;;;18.85;11.43;;;1.00;77.80;;;;;;5016880;28;20038;-61
2023/01/20 05:01:58;;;;;;;21.75;12.32;;;1.10;77.80;;;;;;5015694;28;20022;-57
2023/01/20 05:04:24;;;;;;;18.60;11.75;;;1.10;77.60;;;;;;5015795;28;20056;-58
2023/01/20 05:06:49;;;;;;;18.02;11.25;;;1.10;77.60;;;;;;5014927;28;20057;-61
2023/01/20 05:09:15;;;;;;;20.30;11.20;;;1.10;77.50;;;;;;5018942;28;20497;-60
2023/01/20 05:11:42;;;;;;;19.35;11.35;;;1.20;77.40;;;;;;5018811;28;20049;-60
2023/01/20 05:14:07;;;;;;;18.75;11.55;;;1.10;77.30;;;;;;5015970;28;20758;-58
2023/01/20 05:16:33;;;;;;;18.25;11.30;;;1.20;77.30;;;;;;5023618;28;20112;-61
2023/01/20 05:19:00;;;;;;;18.13;11.95;;;1.10;77.40;;;;;;5023655;28;20079;-59
2023/01/20 05:21:25;;;;;;;18.25;11.43;;;1.20;77.60;;;;;;5022112;28;20497;-61
2023/01/20 05:23:55;;;;;;;17.55;11.88;;;1.20;77.70;;;;;;5021360;28;20033;-60
2023/01/20 05:26:24;;;;;;;21.40;12.23;;;1.20;77.70;;;;;;5016477;28;20134;-59
2023/01/20 05:28:50;;;;;;;19.58;11.70;;;1.20;77.70;;;;;;5008095;28;20105;-58
2023/01/20 05:31:15;;;;;;;20.58;11.48;;;1.20;77.60;;;;;;5015133;28;20040;-59
2023/01/20 05:33:41;;;;;;;18.20;11.98;;;1.20;77.50;;;;;;5017313;28;20051;-60
2023/01/20 05:36:08;;;;;;;18.13;11.50;;;1.20;77.50;;;;;;5024607;28;20041;-60
2023/01/20 05:38:34;;;;;;;18.92;12.65;;;1.20;77.60;;;;;;5022977;28;20088;-58
2023/01/20 05:41:00;;;;;;;18.58;11.82;;;1.20;77.60;;;;;;5021967;28;20045;-59
2023/01/20 05:43:26;;;;;;;18.85;13.07;;;1.20;77.60;;;;;;5020173;28;20064;-60
2023/01/20 05:45:52;;;;;;;21.25;12.77;;;1.20;77.60;;;;;;5022409;28;20037;-60
2023/01/20 05:48:17;;;;;;;19.40;12.98;;;1.20;77.60;;;;;;5023163;28;20552;-60
2023/01/20 05:50:43;;;;;;;21.38;13.57;;;1.20;77.60;;;;;;5023841;28;20040;-58
2023/01/20 05:53:09;;;;;;;21.38;13.00;;;1.20;77.60;;;;;;5022996;28;20509;-62
2023/01/20 05:55:34;;;;;;;20.25;12.25;;;1.10;77.60;;;;;;5020134;28;20076;-58
2023/01/20 05:58:01;;;;;;;19.80;11.60;;;1.20;77.60;;;;;;5022796;28;20037;-60
2023/01/20 06:00:27;;;;;;;20.02;12.30;;;1.10;77.50;;;;;;5020891;28;20532;-60
2023/01/20 06:02:53;;;;;;;18.75;11.90;;;1.10;77.60;;;;;;5021657;28;20041;-61
2023/01/20 06:05:18;;;;;;;17.60;11.15;;;1.10;77.60;;;;;;5020494;28;20060;-59
2023/01/20 06:07:44;;;;;;;21.55;13.50;;;1.10;77.70;;;;;;5018625;28;20528;-62
2023/01/20 06:10:10;;;;;;;24.63;13.45;;;1.10;77.80;;;;;;5019738;28;20091;-62
2023/01/20 06:12:36;;;;;;;30.55;15.23;;;1.10;78.00;;;;;;5014548;28;20582;-63
2023/01/20 06:15:03;;;;;;;39.75;19.67;;;1.10;78.10;;;;;;5019586;28;20036;-62
2023/01/20 06:17:28;;;;;;;53.08;23.83;;;1.10;78.70;;;;;;5017473;28;20029;-61
2023/01/20 06:19:54;;;;;;;44.40;21.85;;;1.10;78.00;;;;;;5019112;28;20026;-61
2023/01/20 06:22:20;;;;;;;36.83;18.48;;;1.10;77.90;;;;;;5019609;28;20121;-61
2023/01/20 06:24:46;;;;;;;33.83;16.42;;;1.20;77.90;;;;;;5017018;28;20578;-61
2023/01/20 06:27:11;;;;;;;29.90;14.68;;;1.20;77.90;;;;;;5017677;28;20037;-60
2023/01/20 06:29:37;;;;;;;24.30;12.95;;;1.20;77.90;;;;;;5016659;28;20034;-61
2023/01/20 06:32:03;;;;;;;21.88;11.82;;;1.20;77.80;;;;;;5018237;28;20045;-60
2023/01/20 06:34:29;;;;;;;21.52;13.52;;;1.30;77.80;;;;;;5018340;28;20119;-60
2023/01/20 06:36:55;;;;;;;21.13;12.45;;;1.20;77.70;;;;;;5020725;28;20076;-60
2023/01/20 06:39:21;;;;;;;19.75;11.45;;;1.30;77.80;;;;;;5017123;28;20910;-60
2023/01/20 06:41:46;;;;;;;19.40;11.55;;;1.30;77.70;;;;;;5019296;28;20038;-60
2023/01/20 06:44:12;;;;;;;19.15;11.30;;;1.30;77.80;;;;;;5017559;28;20409;-59
2023/01/20 06:46:38;;;;;;;19.90;11.75;;;1.30;77.60;;;;;;5018956;28;20041;-59
2023/01/20 06:49:03;;;;;;;17.65;11.93;;;1.40;77.60;;;;;;5013713;28;20038;-61
2023/01/20 06:51:29;;;;;;;18.48;11.65;;;1.40;77.60;;;;;;5015942;28;20029;-62
2023/01/20 06:53:56;;;;;;;17.77;12.10;;;1.40;77.50;;;;;;5014595;28;20456;-60
2023/01/20 06:56:22;;;;;;;17.08;11.80;;;1.40;77.40;;;;;;5015323;28;20042;-60
2023/01/20 06:58:48;;;;;;;18.70;11.10;;;1.40;77.50;;;;;;5016963;28;20424;-60
2023/01/20 07:01:26;;;;;;;20.42;11.90;;;1.40;77.40;;;;;;5016795;28;20040;-61
2023/01/20 07:03:53;;;;;;;20.27;11.77;;;1.40;77.40;;;;;;5019507;28;20045;-60
2023/01/20 07:06:32;;;;;;;19.45;10.57;;;1.40;77.20;;;;;;5012594;28;20041;-60
2023/01/20 07:08:59;;;;;;;18.52;10.77;;;1.40;77.30;;;;;;5015361;28;20541;-59
2023/01/20 07:11:25;;;;;;;19.08;12.10;;;1.40;77.30;;;;;;5013106;28;20037;-61
2023/01/20 07:13:50;;;;;;;18.10;11.23;;;1.40;77.30;;;;;;5014239;28;20041;-61
2023/01/20 07:16:16;;;;;;;13.75;9.82;;;1.40;77.40;;;;;;5015333;28;20555;-60
2023/01/20 07:18:42;;;;;;;14.63;10.30;;;1.40;77.30;;;;;;5013253;28;20033;-61
2023/01/20 07:21:10;;;;;;;16.58;9.60;;;1.30;77.30;;;;;;5017411;28;20029;-61
2023/01/20 07:23:36;;;;;;;15.07;9.75;;;1.30;77.40;;;;;;5017033;28;20030;-62
2023/01/20 07:26:04;;;;;;;16.08;10.07;;;1.30;77.50;;;;;;5020302;28;20709;-62
2023/01/20 07:28:31;;;;;;;16.40;10.13;;;1.40;77.70;;;;;;5020211;28;20417;-62
2023/01/20 07:31:04;;;;;;;17.58;11.15;;;1.40;77.80;;;;;;5015562;28;20045;-60
2023/01/20 07:33:31;;;;;;;17.83;10.73;;;1.30;77.80;;;;;;5017208;28;20045;-58
2023/01/20 07:35:57;;;;;;;15.10;10.27;;;1.30;77.80;;;;;;5017902;28;20405;-60
2023/01/20 07:38:22;;;;;;;13.85;9.63;;;1.30;78.00;;;;;;5017150;28;20111;-59
2023/01/20 07:40:48;;;;;;;15.65;10.13;;;1.40;78.10;;;;;;5015959;28;20030;-61
2023/01/20 07:43:14;;;;;;;17.67;10.07;;;1.40;78.10;;;;;;5020941;28;20112;-60
2023/01/20 07:45:39;;;;;;;15.10;9.73;;;1.40;78.20;;;;;;5021060;28;20060;-59
2023/01/20 07:48:06;;;;;;;14.93;10.10;;;1.40;78.30;;;;;;5015116;28;20116;-60
2023/01/20 07:50:35;;;;;;;12.95;9.15;;;1.40;78.30;;;;;;5011587;28;20053;-59
2023/01/20 07:53:01;;;;;;;14.93;10.20;;;1.40;78.50;;;;;;5014243;28;20107;-61
2023/01/20 07:55:26;;;;;;;17.45;10.77;;;1.40;78.50;;;;;;5015532;28;20095;-62
2023/01/20 07:57:52;;;;;;;15.50;10.55;;;1.40;78.70;;;;;;5011546;28;20042;-61
2023/01/20 08:00:18;;;;;;;14.95;10.32;;;1.40;78.80;;;;;;5016554;28;20103;-60
2023/01/20 08:02:44;;;;;;;18.08;10.35;;;1.40;78.80;;;;;;5013274;28;20067;-61
2023/01/20 08:05:10;;;;;;;16.25;10.68;;;1.40;78.80;;;;;;5019688;28;20057;-59
2023/01/20 08:07:35;;;;;;;17.75;11.10;;;1.50;78.90;;;;;;5014878;28;20036;-61
2023/01/20 08:10:01;;;;;;;16.23;10.65;;;1.50;79.00;;;;;;5017086;28;20033;-60
2023/01/20 08:12:28;;;;;;;16.10;10.55;;;1.50;78.90;;;;;;5012643;28;20037;-61
2023/01/20 08:14:54;;;;;;;19.25;12.35;;;1.50;79.00;;;;;;5010358;28;20227;-61
2023/01/20 08:17:19;;;;;;;19.02;12.10;;;1.50;79.00;;;;;;5014589;28;20065;-61
2023/01/20 08:19:45;;;;;;;19.08;12.75;;;1.50;79.00;;;;;;5013582;28;20729;-60
2023/01/20 08:22:10;;;;;;;20.17;12.27;;;1.60;79.10;;;;;;5015595;28;20061;-59
2023/01/20 08:24:36;;;;;;;17.50;11.60;;;1.60;79.00;;;;;;5014237;28;20046;-58
2023/01/20 08:27:02;;;;;;;19.02;11.93;;;1.60;79.10;;;;;;5013464;28;20500;-62
2023/01/20 08:29:27;;;;;;;16.50;11.05;;;1.60;79.00;;;;;;5012281;28;20050;-62
2023/01/20 08:31:53;;;;;;;15.65;10.70;;;1.60;79.00;;;;;;5015538;28;20041;-58
2023/01/20 08:34:19;;;;;;;18.65;11.48;;;1.60;79.00;;;;;;5016813;28;20099;-61
2023/01/20 08:36:47;;;;;;;16.88;11.13;;;1.60;79.90;;;;;;5014776;28;20074;-60
2023/01/20 08:39:14;;;;;;;17.98;10.60;;;1.60;79.00;;;;;;5017187;28;20528;-60
2023/01/20 08:41:42;;;;;;;15.75;10.68;;;1.60;79.20;;;;;;5012459;28;20048;-62
2023/01/20 08:44:08;;;;;;;17.48;11.52;;;1.60;79.20;;;;;;5012302;28;20059;-59
2023/01/20 08:46:36;;;;;;;19.77;10.68;;;1.60;79.20;;;;;;5018050;28;20474;-59
2023/01/20 08:49:05;;;;;;;16.90;10.98;;;1.60;79.20;;;;;;5022122;28;20463;-60
2023/01/20 08:51:31;;;;;;;18.20;10.40;;;1.60;79.20;;;;;;5023255;28;20106;-58
2023/01/20 08:53:57;;;;;;;14.77;9.82;;;1.70;79.20;;;;;;5018363;28;20179;-58
2023/01/20 08:56:23;;;;;;;16.23;10.38;;;1.60;79.10;;;;;;5033380;28;20184;-59
2023/01/20 08:58:49;;;;;;;14.75;10.13;;;1.60;79.30;;;;;;5020957;28;20497;-60
2023/01/20 09:01:18;;;;;;;15.43;9.85;;;1.70;79.50;;;;;;5015751;28;20041;-61
2023/01/20 09:03:44;;;;;;;15.55;10.35;;;1.70;79.40;;;;;;5016884;28;20127;-59
2023/01/20 09:06:11;;;;;;;14.07;10.10;;;1.70;79.40;;;;;;5019124;28;20735;-60
2023/01/20 09:08:37;;;;;;;14.75;9.80;;;1.80;79.40;;;;;;5019832;28;20072;-60
2023/01/20 09:11:04;;;;;;;15.98;9.95;;;1.80;79.40;;;;;;5019462;28;20505;-60
2023/01/20 09:13:29;;;;;;;16.83;9.88;;;1.80;79.50;;;;;;5016980;28;20037;-60
2023/01/20 09:15:55;;;;;;;14.90;10.02;;;1.80;79.50;;;;;;5019160;28;20040;-58
2023/01/20 09:18:21;;;;;;;15.73;10.35;;;1.80;79.70;;;;;;5021941;28;20033;-61
2023/01/20 09:20:46;;;;;;;13.45;9.80;;;1.90;79.80;;;;;;5019525;28;20412;-60
2023/01/20 09:23:12;;;;;;;16.10;9.23;;;1.90;79.70;;;;;;5021106;28;20515;-61
2023/01/20 09:25:37;;;;;;;13.90;9.52;;;2.00;79.70;;;;;;5017388;28;20059;-59
2023/01/20 09:28:03;;;;;;;11.65;9.15;;;2.00;80.60;;;;;;5019180;28;20057;-60
2023/01/20 09:30:28;;;;;;;13.25;9.25;;;2.00;79.50;;;;;;5018618;28;20075;-60
2023/01/20 09:32:56;;;;;;;12.52;9.18;;;2.10;79.60;;;;;;5018466;28;20059;-61
2023/01/20 09:35:22;;;;;;;12.30;9.07;;;2.10;79.50;;;;;;5021777;28;20121;-58
2023/01/20 09:43:55;;;;;;;12.80;8.82;;;2.20;79.20;;;;;;5019848;28;20040;-59
2023/01/20 09:47:18;;;;;;;15.65;8.95;;;2.20;79.00;;;;;;5018157;28;20041;-60
2023/01/20 09:55:25;;;;;;;13.57;8.02;;;2.30;78.70;;;;;;5017826;28;20426;-61
2023/01/20 09:58:04;;;;;;;11.57;8.65;;;2.30;78.80;;;;;;5019730;28;20037;-60
2023/01/20 10:00:31;;;;;;;13.27;8.30;;;2.30;78.80;;;;;;5022945;28;20065;-61
2023/01/20 10:03:11;;;;;;;13.05;8.85;;;2.30;78.80;;;;;;5021051;28;20037;-60
2023/01/20 10:05:38;;;;;;;14.70;9.50;;;2.30;78.90;;;;;;5018138;28;22279;-60
2023/01/20 10:08:10;;;;;;;13.25;8.70;;;2.30;78.80;;;;;;5019632;28;20505;-58
2023/01/20 10:10:57;;;;;;;15.20;9.45;;;2.40;78.90;;;;;;5015193;28;20547;-60
2023/01/20 10:13:36;;;;;;;14.32;8.82;;;2.40;78.90;;;;;;5019843;28;20416;-61
2023/01/20 10:16:07;;;;;;;17.95;9.88;;;2.40;78.80;;;;;;5023972;28;20041;-61
2023/01/20 10:19:01;;;;;;;42.28;18.75;;;2.40;78.90;;;;;;5020626;28;20652;-60
2023/01/20 10:21:34;;;;;;;16.00;10.18;;;2.40;79.10;;;;;;5019055;28;20060;-58
2023/01/20 10:24:17;;;;;;;14.25;8.85;;;2.40;79.00;;;;;;5022393;28;20536;-59
2023/01/20 10:26:49;;;;;;;14.95;9.95;;;2.50;78.80;;;;;;5020805;28;20042;-61
2023/01/20 10:29:22;;;;;;;15.18;10.32;;;2.50;78.60;;;;;;5022203;28;20033;-59
2023/01/20 10:31:58;;;;;;;14.03;9.53;;;2.50;78.60;;;;;;5020533;28;20033;-60
2023/01/20 10:34:28;;;;;;;15.63;10.10;;;2.50;78.70;;;;;;5022602;28;20037;-60
2023/01/20 10:37:09;;;;;;;20.60;11.73;;;2.50;78.60;;;;;;5018860;28;20083;-62
2023/01/20 10:39:51;;;;;;;15.18;10.27;;;2.60;78.70;;;;;;5020379;28;20091;-59
2023/01/20 10:42:18;;;;;;;16.15;11.35;;;2.60;78.50;;;;;;5019971;28;20048;-59
2023/01/20 10:44:46;;;;;;;18.80;12.90;;;2.60;78.50;;;;;;5021897;28;20041;-61
2023/01/20 10:47:25;;;;;;;25.00;13.02;;;2.60;78.50;;;;;;5023265;28;20038;-61
2023/01/20 10:50:02;;;;;;;14.65;9.93;;;2.60;78.60;;;;;;5019975;28;20042;-61
2023/01/20 10:53:00;;;;;;;21.85;14.57;;;2.70;78.60;;;;;;5021020;28;20046;-61
2023/01/20 10:55:44;;;;;;;13.20;10.00;;;2.70;78.50;;;;;;5009900;28;20095;-59
2023/01/20 10:58:18;;;;;;;16.40;11.32;;;2.70;78.50;;;;;;5016220;28;20029;-60
2023/01/20 11:00:44;;;;;;;14.48;9.60;;;2.70;78.50;;;;;;5014699;28;20052;-60
2023/01/20 11:03:14;;;;;;;15.88;10.13;;;2.70;78.40;;;;;;5019800;28;20476;-60
2023/01/20 11:05:41;;;;;;;14.45;9.45;;;2.70;78.40;;;;;;5025531;28;20079;-57
2023/01/20 11:08:26;;;;;;;13.60;9.25;;;2.70;78.30;;;;;;5022998;28;20026;-58
2023/01/20 11:11:11;;;;;;;13.57;9.77;;;2.70;78.50;;;;;;5022875;28;20040;-59
2023/01/20 11:13:36;;;;;;;13.02;9.15;;;2.80;78.40;;;;;;5025312;28;20041;-61
2023/01/20 11:16:09;;;;;;;13.38;9.07;;;2.80;78.30;;;;;;5023849;28;20041;-58
2023/01/20 11:18:35;;;;;;;13.40;9.13;;;2.80;78.40;;;;;;5022589;28;20432;-62
2023/01/20 11:21:08;;;;;;;12.25;8.73;;;2.80;78.40;;;;;;5022169;28;20100;-60
2023/01/20 11:23:56;;;;;;;12.48;8.98;;;2.80;78.40;;;;;;5022556;28;20041;-62
2023/01/20 11:26:28;;;;;;;13.93;9.10;;;2.90;78.40;;;;;;5023834;28;20417;-58
2023/01/20 11:28:57;;;;;;;14.15;8.80;;;2.90;78.30;;;;;;5020599;28;20025;-61
2023/01/20 11:31:43;;;;;;;13.13;9.32;;;3.00;78.40;;;;;;5022249;28;20374;-62
2023/01/20 11:34:24;;;;;;;15.18;9.20;;;3.00;78.10;;;;;;5015941;28;20068;-61
2023/01/20 11:37:20;;;;;;;32.65;15.07;;;3.00;77.40;;;;;;5021237;28;20072;-61
2023/01/20 11:39:49;;;;;;;23.65;12.30;;;3.10;77.20;;;;;;5016577;28;20037;-62
2023/01/20 11:42:23;;;;;;;13.55;9.68;;;3.10;77.40;;;;;;5016033;28;20551;-60
2023/01/20 11:45:01;;;;;;;15.10;9.50;;;3.10;77.40;;;;;;5018638;28;20037;-62
2023/01/20 11:47:31;;;;;;;12.98;8.88;;;3.10;77.10;;;;;;5022213;28;20167;-59
2023/01/20 11:50:03;;;;;;;12.82;8.18;;;3.10;76.90;;;;;;5021755;28;20037;-61
2023/01/20 11:52:30;;;;;;;13.48;8.98;;;3.10;76.60;;;;;;5014729;28;20051;-62
2023/01/20 11:55:16;;;;;;;13.15;8.77;;;3.10;76.90;;;;;;5023611;28;20041;-61
2023/01/20 11:57:47;;;;;;;12.65;8.82;;;3.10;76.90;;;;;;5015740;28;20034;-59
2023/01/20 12:00:19;;;;;;;13.68;9.35;;;3.10;77.10;;;;;;5020783;28;20568;-62
2023/01/20 12:03:02;;;;;;;15.63;8.63;;;3.10;77.30;;;;;;5020485;28;20312;-62
2023/01/20 12:05:47;;;;;;;13.00;8.52;;;3.20;77.20;;;;;;5013788;28;20037;-63
2023/01/20 12:08:42;;;;;;;12.80;8.52;;;3.20;76.90;;;;;;5016293;28;20033;-61
2023/01/20 12:11:09;;;;;;;;;;;3.20;76.70;;;;;;5014693;28;20476;-63
2023/01/20 12:16:31;;;;;;;11.52;7.88;;;3.30;76.90;;;;;;5017662;28;20554;-63
2023/01/20 12:19:03;;;;;;;10.27;7.93;;;3.30;76.90;;;;;;5016504;28;20041;-63
2023/01/20 12:21:35;;;;;;;13.00;8.38;;;3.30;76.70;;;;;;5017997;28;20044;-62
2023/01/20 12:24:13;;;;;;;11.15;7.60;;;3.30;76.80;;;;;;5015588;28;20122;-63
2023/01/20 12:26:38;;;;;;;13.63;8.55;;;3.30;76.70;;;;;;5018094;28;20501;-63
2023/01/20 12:29:19;;;;;;;11.93;7.55;;;3.30;76.20;;;;;;5018606;28;20033;-63
2023/01/20 12:31:47;;;;;;;12.73;7.93;;;3.40;76.10;;;;;;5018455;28;20057;-62
2023/01/20 12:34:29;;;;;;;13.02;9.32;;;3.40;76.20;;;;;;5021950;28;20029;-62
2023/01/20 12:37:18;;;;;;;13.10;7.50;;;3.40;76.10;;;;;;5014529;28;20067;-62
2023/01/20 12:40:21;;;;;;;10.15;6.93;;;3.40;74.80;;;;;;5012430;28;20602;-61
2023/01/20 12:42:55;;;;;;;9.10;7.45;;;3.40;74.60;;;;;;5015201;28;20041;-63
2023/01/20 12:45:43;;;;;;;11.50;6.88;;;3.40;75.20;;;;;;5016103;28;20026;-63
2023/01/20 12:48:29;;;;;;;9.48;7.07;;;3.40;74.70;;;;;;5023114;28;20033;-62
2023/01/20 12:51:13;;;;;;;9.40;6.40;;;3.40;73.70;;;;;;5021000;28;20033;-60
2023/01/20 12:53:48;;;;;;;12.32;7.35;;;3.40;73.70;;;;;;5019444;28;20045;-62
2023/01/20 12:56:39;;;;;;;10.80;6.50;;;3.40;74.10;;;;;;5020359;28;20030;-62
2023/01/20 12:59:35;;;;;;;10.35;6.47;;;3.50;73.80;;;;;;4995630;28;20129;-62
2023/01/20 13:02:36;;;;;;;11.18;6.63;;;3.50;73.30;;;;;;5017617;28;20339;-62
2023/01/20 13:05:18;;;;;;;11.93;6.28;;;3.50;73.30;;;;;;5013858;28;20152;-61
2023/01/20 13:08:13;;;;;;;9.43;6.10;;;3.50;73.50;;;;;;5019574;28;20048;-61
2023/01/20 13:10:44;;;;;;;8.45;5.82;;;3.50;71.70;;;;;;5016908;28;20034;-60
2023/01/20 13:13:23;;;;;;;9.85;5.32;;;3.50;71.60;;;;;;5011906;28;20026;-60